createdAt,value
2018-06-24T00:01:47.286Z,94.14
2018-06-24T00:04:16.549Z,93.91
2018-06-24T00:06:45.847Z,94.38
2018-06-24T00:09:15.025Z,93.86
2018-06-24T00:11:44.205Z,94.09
2018-06-24T00:14:13.455Z,94.44
2018-06-24T00:16:42.543Z,93.90
2018-06-24T00:19:11.769Z,94.11
2018-06-24T00:21:40.927Z,94.62
2018-06-24T00:24:10.353Z,93.90
2018-06-24T00:26:39.561Z,94.32
2018-06-24T00:29:08.788Z,93.99
2018-06-24T00:31:38.085Z,94.08
2018-06-24T00:34:07.278Z,94.37
2018-06-24T00:36:37.487Z,94.69
2018-06-24T00:39:09.015Z,95.31
2018-06-24T00:41:38.549Z,95.04
2018-06-24T00:44:07.749Z,95.82
2018-06-24T00:46:37.764Z,95.59
2018-06-24T00:49:06.952Z,95.79
2018-06-24T00:51:36.163Z,95.72
2018-06-24T00:54:05.311Z,95.98
2018-06-24T00:56:34.530Z,95.76
2018-06-24T00:59:03.723Z,96.47
2018-06-24T01:01:32.881Z,96.49
2018-06-24T01:04:02.613Z,96.22
2018-06-24T01:06:31.748Z,96.10
2018-06-24T01:09:00.892Z,96.13
2018-06-24T01:11:30.702Z,96.46
2018-06-24T01:13:59.873Z,95.99
2018-06-24T01:16:29.085Z,96.06
2018-06-24T01:18:58.273Z,96.11
2018-06-24T01:21:27.469Z,95.71
2018-06-24T01:23:56.617Z,96.23
2018-06-24T01:26:26.684Z,96.20
2018-06-24T01:28:55.852Z,96.08
2018-06-24T01:31:25.146Z,96.00
2018-06-24T01:33:54.303Z,96.51
2018-06-24T01:36:23.462Z,96.61
2018-06-24T01:38:52.591Z,96.96
2018-06-24T01:41:21.743Z,96.39
2018-06-24T01:43:50.969Z,97.15
2018-06-24T01:46:20.212Z,96.64
2018-06-24T01:48:49.390Z,96.77
2018-06-24T01:51:18.589Z,96.94
2018-06-24T01:53:47.846Z,96.86
2018-06-24T01:56:17.049Z,96.83
2018-06-24T01:58:46.282Z,96.94
2018-06-24T02:01:15.478Z,96.66
2018-06-24T02:03:44.840Z,97.25
2018-06-24T02:06:13.981Z,97.04
2018-06-24T02:08:43.108Z,96.47
2018-06-24T02:11:12.241Z,97.07
2018-06-24T02:13:41.341Z,96.70
2018-06-24T02:16:10.480Z,97.05
2018-06-24T02:18:39.707Z,97.05
2018-06-24T02:21:08.835Z,96.80
2018-06-24T02:23:37.996Z,96.66
2018-06-24T02:26:07.209Z,96.69
2018-06-24T02:28:36.538Z,97.18
2018-06-24T02:31:06.000Z,97.18
2018-06-24T02:33:35.132Z,97.19
2018-06-24T02:36:04.281Z,96.88
2018-06-24T02:38:33.413Z,97.40
2018-06-24T02:41:02.610Z,97.23
2018-06-24T02:43:31.706Z,96.95
2018-06-24T02:46:00.949Z,96.79
2018-06-24T02:48:30.076Z,97.46
2018-06-24T02:50:59.220Z,97.60
2018-06-24T02:53:28.380Z,97.17
2018-06-24T02:55:57.722Z,96.91
2018-06-24T02:58:26.887Z,97.13
2018-06-24T03:00:56.068Z,97.35
2018-06-24T03:03:25.169Z,97.89
2018-06-24T03:05:54.361Z,97.33
2018-06-24T03:08:23.488Z,97.42
2018-06-24T03:10:52.604Z,97.56
2018-06-24T03:13:21.877Z,97.67
2018-06-24T03:15:51.290Z,97.92
2018-06-24T03:18:21.061Z,98.26
2018-06-24T03:20:50.285Z,98.11
2018-06-24T03:23:19.585Z,98.40
2018-06-24T03:25:48.728Z,97.92
2018-06-24T03:28:17.903Z,98.09
2018-06-24T03:30:47.074Z,98.36
2018-06-24T03:33:16.195Z,98.17
2018-06-24T03:35:45.306Z,98.16
2018-06-24T03:38:14.530Z,98.17
2018-06-24T03:40:43.657Z,97.79
2018-06-24T03:43:12.861Z,97.82
2018-06-24T03:45:42.145Z,97.66
2018-06-24T03:48:11.328Z,98.14
2018-06-24T03:50:40.457Z,98.06
2018-06-24T03:53:09.654Z,97.84
2018-06-24T03:55:38.839Z,97.81
2018-06-24T03:58:08.027Z,97.44
2018-06-24T04:00:37.167Z,97.28
2018-06-24T04:03:06.337Z,97.62
2018-06-24T04:05:35.543Z,97.37
2018-06-24T04:08:04.711Z,97.72
2018-06-24T04:10:33.842Z,97.67
2018-06-24T04:13:03.309Z,96.95
2018-06-24T04:15:32.441Z,97.35
2018-06-24T04:18:01.680Z,97.05
2018-06-24T04:20:30.826Z,97.17
2018-06-24T04:22:59.926Z,96.62
2018-06-24T04:25:29.074Z,97.28
2018-06-24T04:27:58.194Z,97.45
2018-06-24T04:30:27.341Z,96.93
2018-06-24T04:32:56.574Z,96.99
2018-06-24T04:35:25.733Z,97.32
2018-06-24T04:37:54.937Z,97.21
2018-06-24T04:40:25.002Z,96.82
2018-06-24T04:42:54.188Z,96.77
2018-06-24T04:45:23.344Z,96.79
2018-06-24T04:47:52.543Z,97.50
2018-06-24T04:50:21.738Z,97.37
2018-06-24T04:52:50.881Z,97.53
2018-06-24T04:55:20.062Z,97.09
2018-06-24T04:57:49.243Z,96.91
2018-06-24T05:00:18.419Z,96.89
2018-06-24T05:02:47.584Z,97.10
2018-06-24T05:05:16.710Z,97.40
2018-06-24T05:07:45.827Z,97.60
2018-06-24T05:10:14.976Z,97.52
2018-06-24T05:12:44.155Z,97.25
2018-06-24T05:15:13.294Z,97.25
2018-06-24T05:17:42.451Z,97.46
2018-06-24T05:20:11.630Z,97.39
2018-06-24T05:22:41.836Z,96.91
2018-06-24T05:25:11.006Z,96.70
2018-06-24T05:27:40.168Z,96.75
2018-06-24T05:30:09.366Z,96.40
2018-06-24T05:32:38.491Z,96.33
2018-06-24T05:35:07.649Z,95.96
2018-06-24T05:37:36.790Z,96.32
2018-06-24T05:40:05.972Z,95.93
2018-06-24T05:42:35.154Z,95.46
2018-06-24T05:45:04.283Z,95.07
2018-06-24T05:47:33.403Z,94.93
2018-06-24T05:50:02.535Z,95.47
2018-06-24T05:52:31.657Z,95.14
2018-06-24T05:55:00.798Z,94.60
2018-06-24T05:57:29.977Z,94.45
2018-06-24T05:59:59.102Z,94.50
2018-06-24T06:02:28.462Z,93.95
2018-06-24T06:04:57.590Z,93.96
2018-06-24T06:07:26.782Z,93.63
2018-06-24T06:09:55.938Z,93.36
2018-06-24T06:12:25.089Z,93.35
2018-06-24T06:14:54.241Z,92.65
2018-06-24T06:17:23.382Z,92.16
2018-06-24T06:19:52.579Z,92.26
2018-06-24T06:22:21.838Z,91.89
2018-06-24T06:24:50.975Z,91.90
2018-06-24T06:27:20.123Z,91.98
2018-06-24T06:29:49.259Z,91.80
2018-06-24T06:32:18.388Z,91.35
2018-06-24T06:34:47.318Z,91.14
2018-06-24T06:37:16.425Z,91.62
2018-06-24T06:39:45.608Z,91.66
2018-06-24T06:42:14.798Z,91.58
2018-06-24T06:44:43.939Z,91.78
2018-06-24T06:47:13.416Z,90.90
2018-06-24T06:49:42.694Z,91.40
2018-06-24T06:52:11.855Z,91.04
2018-06-24T06:54:40.977Z,90.82
2018-06-24T06:57:10.548Z,91.03
2018-06-24T06:59:40.927Z,91.55
2018-06-24T07:02:10.369Z,91.64
2018-06-24T07:04:39.491Z,91.53
2018-06-24T07:07:08.726Z,91.87
2018-06-24T07:09:37.923Z,91.00
2018-06-24T07:12:07.237Z,90.82
2018-06-24T07:14:36.435Z,91.25
2018-06-24T07:17:05.883Z,91.03
2018-06-24T07:19:34.983Z,91.60
2018-06-24T07:22:04.157Z,91.88
2018-06-24T07:24:33.370Z,92.33
2018-06-24T07:27:02.613Z,91.70
2018-06-24T07:29:32.049Z,91.73
2018-06-24T07:32:00.925Z,92.04
2018-06-24T07:34:30.081Z,91.51
2018-06-24T07:36:59.218Z,91.51
2018-06-24T07:39:28.360Z,90.92
2018-06-24T07:41:57.447Z,90.17
2018-06-24T07:44:26.552Z,89.81
2018-06-24T07:46:55.783Z,89.69
2018-06-24T07:49:24.917Z,90.44
2018-06-24T07:51:54.110Z,90.82
2018-06-24T07:54:23.247Z,90.97
2018-06-24T07:56:52.377Z,91.22
2018-06-24T07:59:21.522Z,90.80
2018-06-24T08:01:50.727Z,91.28
2018-06-24T08:04:19.852Z,90.89
2018-06-24T08:06:49.273Z,91.30
2018-06-24T08:09:18.509Z,91.24
2018-06-24T08:11:47.706Z,91.13
2018-06-24T08:14:16.840Z,91.22
2018-06-24T08:16:45.967Z,91.06
2018-06-24T08:19:15.120Z,91.35
2018-06-24T08:21:44.277Z,91.30
2018-06-24T08:24:13.452Z,91.39
2018-06-24T08:26:43.285Z,92.00
2018-06-24T08:29:13.479Z,91.55
2018-06-24T08:31:42.644Z,92.23
2018-06-24T08:34:11.823Z,92.21
2018-06-24T08:36:40.964Z,91.95
2018-06-24T08:39:11.125Z,92.56
2018-06-24T08:41:40.323Z,92.04
2018-06-24T08:44:09.547Z,92.22
2018-06-24T08:46:38.949Z,91.60
2018-06-24T08:49:08.653Z,91.37
2018-06-24T08:51:37.749Z,91.14
2018-06-24T08:54:06.911Z,91.37
2018-06-24T08:56:36.121Z,91.13
2018-06-24T08:59:05.269Z,90.66
2018-06-24T09:01:34.897Z,91.24
2018-06-24T09:04:04.868Z,90.98
2018-06-24T09:06:34.040Z,91.12
2018-06-24T09:09:03.497Z,90.93
2018-06-24T09:11:32.647Z,89.71
2018-06-24T09:14:01.792Z,90.21
2018-06-24T09:16:30.903Z,89.13
2018-06-24T09:19:00.067Z,88.57
2018-06-24T09:21:29.210Z,88.21
2018-06-24T09:23:58.347Z,86.79
2018-06-24T09:26:27.606Z,86.24
2018-06-24T09:28:56.786Z,85.45
2018-06-24T09:31:26.047Z,85.04
2018-06-24T09:33:55.248Z,85.22
2018-06-24T09:36:25.003Z,84.97
2018-06-24T09:38:54.173Z,85.65
2018-06-24T09:41:23.345Z,84.66
2018-06-24T09:43:52.641Z,83.76
2018-06-24T09:46:21.768Z,82.98
2018-06-24T09:48:50.978Z,82.80
2018-06-24T09:51:20.234Z,81.80
2018-06-24T09:53:49.434Z,81.94
2018-06-24T09:56:18.641Z,82.75
2018-06-24T09:58:47.829Z,82.99
2018-06-24T10:01:17.109Z,83.21
2018-06-24T10:03:46.467Z,82.67
2018-06-24T10:06:15.790Z,83.76
2018-06-24T10:08:45.051Z,82.99
2018-06-24T10:11:14.399Z,83.32
2018-06-24T10:13:43.582Z,82.17
2018-06-24T10:16:14.100Z,81.16
2018-06-24T10:18:43.855Z,80.60
2018-06-24T10:21:13.933Z,80.32
2018-06-24T10:23:43.465Z,81.12
2018-06-24T10:26:12.836Z,80.86
2018-06-24T10:28:42.460Z,79.21
2018-06-24T10:31:12.026Z,78.03
2018-06-24T10:33:42.222Z,76.64
2018-06-24T10:36:11.678Z,77.03
2018-06-24T10:38:40.775Z,77.76
2018-06-24T10:41:10.424Z,79.33
2018-06-24T10:43:39.957Z,80.46
2018-06-24T10:46:10.163Z,81.71
2018-06-24T10:48:43.581Z,82.25
2018-06-24T10:51:15.383Z,81.27
2018-06-24T10:53:44.711Z,79.17
2018-06-24T10:56:14.111Z,77.75
2018-06-24T10:58:43.271Z,76.38
2018-06-24T11:01:12.610Z,75.41
2018-06-24T11:03:41.770Z,76.73
2018-06-24T11:06:10.946Z,77.02
2018-06-24T11:08:40.105Z,78.36
2018-06-24T11:11:09.269Z,78.28
2018-06-24T11:13:38.490Z,77.55
2018-06-24T11:16:07.660Z,76.77
2018-06-24T11:18:36.818Z,75.87
2018-06-24T11:21:06.268Z,74.43
2018-06-24T11:23:35.455Z,74.17
2018-06-24T11:26:04.661Z,74.26
2018-06-24T11:39:40.598Z,68.27
2018-06-24T11:42:09.728Z,69.89
2018-06-24T11:44:38.897Z,70.54
2018-06-24T11:47:08.065Z,70.70
2018-06-24T11:49:37.272Z,70.74
2018-06-24T11:52:06.761Z,69.65
2018-06-24T11:54:35.910Z,69.24
2018-06-24T11:57:05.215Z,68.58
2018-06-24T11:59:34.428Z,69.28
2018-06-24T12:02:03.683Z,69.87
2018-06-24T12:04:33.077Z,69.61
2018-06-24T12:07:02.243Z,70.69
2018-06-24T12:09:31.515Z,71.25
2018-06-24T12:12:00.658Z,70.88
2018-06-24T12:14:29.810Z,72.32
2018-06-24T12:16:59.579Z,71.97
2018-06-24T12:19:28.721Z,72.71
2018-06-24T12:21:58.762Z,72.83
2018-06-24T12:24:27.935Z,74.10
2018-06-24T12:26:57.173Z,75.58
2018-06-24T12:29:26.501Z,76.70
2018-06-24T12:31:55.939Z,77.83
2018-06-24T12:34:25.889Z,77.27
2018-06-24T12:36:55.346Z,76.22
2018-06-24T12:39:24.856Z,74.97
2018-06-24T12:41:54.311Z,74.30
2018-06-24T12:44:23.676Z,73.51
2018-06-24T12:46:53.258Z,73.81
2018-06-24T12:49:22.938Z,74.15
2018-06-24T12:51:52.102Z,74.14
2018-06-24T12:54:21.535Z,74.12
2018-06-24T12:56:51.426Z,73.88
2018-06-24T12:59:20.865Z,72.91
2018-06-24T13:01:49.921Z,73.18
2018-06-24T13:04:19.278Z,72.50
2018-06-24T13:06:48.308Z,71.72
2018-06-24T13:09:17.617Z,71.09
2018-06-24T13:11:47.428Z,69.36
2018-06-24T13:14:16.658Z,69.20
2018-06-24T13:16:45.806Z,68.28
2018-06-24T13:19:15.083Z,68.21
2018-06-24T13:21:44.375Z,67.60
2018-06-24T13:24:20.577Z,66.42
2018-06-24T13:26:49.944Z,66.25
2018-06-24T13:29:19.104Z,66.57
2018-06-24T13:31:48.393Z,66.85
2018-06-24T13:34:17.652Z,67.09
2018-06-24T13:36:47.461Z,66.83
2018-06-24T13:39:16.720Z,67.51
2018-06-24T13:41:45.939Z,67.38
2018-06-24T13:44:15.485Z,67.62
2018-06-24T13:46:44.830Z,67.76
2018-06-24T13:49:14.020Z,68.39
2018-06-24T13:51:43.925Z,69.05
2018-06-24T13:54:13.388Z,69.06
2018-06-24T13:56:42.766Z,68.69
2018-06-24T13:59:12.091Z,68.77
2018-06-24T14:01:41.544Z,68.43
2018-06-24T14:04:10.698Z,69.53
2018-06-24T14:06:39.966Z,69.62
2018-06-24T14:09:12.417Z,68.72
2018-06-24T14:11:41.773Z,68.46
2018-06-24T14:14:11.084Z,69.37
2018-06-24T14:16:40.797Z,69.03
2018-06-24T14:19:10.233Z,68.24
2018-06-24T14:21:39.479Z,68.77
2018-06-24T14:24:08.863Z,67.48
2018-06-24T14:26:38.050Z,67.80
2018-06-24T14:29:07.333Z,66.87
2018-06-24T14:31:36.562Z,67.12
2018-06-24T14:34:06.149Z,66.59
2018-06-24T14:36:35.324Z,66.75
2018-06-24T14:39:07.720Z,67.15
2018-06-24T14:41:36.984Z,66.80
2018-06-24T14:44:06.539Z,66.72
2018-06-24T14:46:36.235Z,66.92
2018-06-24T14:49:05.720Z,66.26
2018-06-24T14:51:34.999Z,66.65
2018-06-24T14:54:04.273Z,67.25
2018-06-24T14:56:33.487Z,66.96
2018-06-24T14:59:02.766Z,66.89
2018-06-24T15:01:32.138Z,67.38
2018-06-24T15:04:01.234Z,67.11
2018-06-24T15:06:30.565Z,66.61
2018-06-24T15:08:59.823Z,67.08
2018-06-24T15:11:29.147Z,67.80
2018-06-24T15:13:58.612Z,68.26
2018-06-24T15:16:28.251Z,68.32
2018-06-24T15:18:57.555Z,69.14
2018-06-24T15:21:26.934Z,69.02
2018-06-24T15:23:56.342Z,68.54
2018-06-24T15:26:25.733Z,68.44
2018-06-24T15:28:55.134Z,68.72
2018-06-24T15:31:24.441Z,69.11
2018-06-24T15:33:53.870Z,68.29
2018-06-24T15:36:23.065Z,68.79
2018-06-24T15:38:52.393Z,68.54
2018-06-24T15:41:21.662Z,68.75
2018-06-24T15:43:50.999Z,68.85
2018-06-24T15:46:20.292Z,69.07
2018-06-24T15:48:50.227Z,69.80
2018-06-24T15:51:20.568Z,71.01
2018-06-24T15:53:50.184Z,71.96
2018-06-24T15:56:21.943Z,72.98
2018-06-24T15:58:51.347Z,73.21
2018-06-24T16:01:21.070Z,74.47
2018-06-24T16:03:50.850Z,74.96
2018-06-24T16:06:20.944Z,76.08
2018-06-24T16:08:51.541Z,77.29
2018-06-24T16:11:21.743Z,78.23
2018-06-24T16:13:51.128Z,78.60
2018-06-24T16:16:20.428Z,79.86
2018-06-24T16:18:51.091Z,80.72
2018-06-24T16:21:20.715Z,81.37
2018-06-24T16:23:49.683Z,81.79
2018-06-24T16:26:18.881Z,82.65
2018-06-24T16:28:48.252Z,82.62
2018-06-24T16:31:17.529Z,82.80
2018-06-24T16:33:46.740Z,83.45
2018-06-24T16:36:16.102Z,83.55
2018-06-24T16:38:45.520Z,83.03
2018-06-24T16:41:14.794Z,83.15
2018-06-24T16:43:44.317Z,82.93
2018-06-24T16:46:13.602Z,82.68
2018-06-24T16:48:43.340Z,83.24
2018-06-24T16:51:12.930Z,83.03
2018-06-24T16:53:42.597Z,82.81
2018-06-24T16:56:12.117Z,82.28
2018-06-24T16:58:41.353Z,82.71
2018-06-24T17:01:10.530Z,82.72
2018-06-24T17:03:39.871Z,81.95
2018-06-24T17:06:09.054Z,82.21
2018-06-24T17:08:38.210Z,81.80
2018-06-24T17:11:07.381Z,81.55
2018-06-24T17:13:36.531Z,81.85
2018-06-24T17:16:06.053Z,82.39
2018-06-24T17:18:36.272Z,81.73
2018-06-24T17:21:05.538Z,82.36
2018-06-24T17:23:34.788Z,83.26
2018-06-24T17:26:04.002Z,84.27
2018-06-24T17:28:33.287Z,85.11
2018-06-24T17:31:02.689Z,86.19
2018-06-24T17:33:31.925Z,86.22
2018-06-24T17:36:01.970Z,87.32
2018-06-24T17:38:31.286Z,88.43
2018-06-24T17:41:00.488Z,88.75
2018-06-24T17:43:29.617Z,88.93
2018-06-24T17:45:58.795Z,89.12
2018-06-24T17:48:28.012Z,89.51
2018-06-24T17:50:57.140Z,90.07
2018-06-24T17:53:26.504Z,89.79
2018-06-24T17:55:55.659Z,90.27
2018-06-24T17:58:24.809Z,90.92
2018-06-24T18:00:53.964Z,91.46
2018-06-24T18:03:23.519Z,91.28
2018-06-24T18:05:52.726Z,91.71
2018-06-24T18:08:21.915Z,91.72
2018-06-24T18:10:51.145Z,91.65
2018-06-24T18:13:20.517Z,92.06
2018-06-24T18:15:49.877Z,92.02
2018-06-24T18:18:19.063Z,92.32
2018-06-24T18:20:48.240Z,92.09
2018-06-24T18:23:17.456Z,92.67
2018-06-24T18:25:46.568Z,92.59
2018-06-24T18:28:15.714Z,92.33
2018-06-24T18:30:44.841Z,92.28
2018-06-24T18:33:14.185Z,92.50
2018-06-24T18:35:43.358Z,92.57
2018-06-24T18:38:12.526Z,93.19
2018-06-24T18:40:41.683Z,92.82
2018-06-24T18:43:10.960Z,93.48
2018-06-24T18:45:40.371Z,93.58
2018-06-24T18:48:09.397Z,93.83
2018-06-24T18:50:39.797Z,93.58
2018-06-24T18:53:09.423Z,94.29
2018-06-24T18:55:39.714Z,93.65
2018-06-24T18:58:09.759Z,94.41
2018-06-24T19:00:39.717Z,94.45
2018-06-24T19:03:09.605Z,93.78
2018-06-24T19:05:39.859Z,94.00
2018-06-24T19:08:09.076Z,94.11
2018-06-24T19:10:38.226Z,95.02
2018-06-24T19:13:07.387Z,94.71
2018-06-24T19:15:36.823Z,95.03
2018-06-24T19:18:07.233Z,94.81
2018-06-24T19:20:36.439Z,95.09
2018-06-24T19:23:08.043Z,95.20
2018-06-24T19:25:37.230Z,94.53
2018-06-24T19:28:06.588Z,95.19
2018-06-24T19:30:35.753Z,94.73
2018-06-24T19:33:04.960Z,95.05
2018-06-24T19:35:34.214Z,94.98
2018-06-24T19:38:03.564Z,94.79
2018-06-24T19:40:32.751Z,94.80
2018-06-24T19:43:02.019Z,95.07
2018-06-24T19:45:31.175Z,94.79
2018-06-24T19:48:00.304Z,95.39
2018-06-24T19:50:29.491Z,94.62
2018-06-24T19:52:58.637Z,94.82
2018-06-24T19:55:27.801Z,95.12
2018-06-24T19:57:57.001Z,94.58
2018-06-24T20:00:26.140Z,94.70
2018-06-24T20:02:55.277Z,94.92
2018-06-24T20:05:24.450Z,95.14
2018-06-24T20:07:53.655Z,94.88
2018-06-24T20:10:22.785Z,95.37
2018-06-24T20:12:51.939Z,94.98
2018-06-24T20:15:21.192Z,95.30
2018-06-24T20:17:50.318Z,94.57
2018-06-24T20:20:19.449Z,95.05
2018-06-24T20:22:48.668Z,94.89
2018-06-24T20:25:17.833Z,95.05
2018-06-24T20:27:46.966Z,94.65
2018-06-24T20:30:16.149Z,95.37
2018-06-24T20:32:45.302Z,95.49
2018-06-24T20:35:14.461Z,95.38
2018-06-24T20:37:43.623Z,95.75
2018-06-24T20:40:13.816Z,95.57
2018-06-24T20:42:43.118Z,95.20
2018-06-24T20:45:12.382Z,95.08
2018-06-24T20:47:41.595Z,95.69
2018-06-24T20:50:10.900Z,95.09
2018-06-24T20:52:40.048Z,95.19
2018-06-24T20:55:09.321Z,95.80
2018-06-24T20:57:38.473Z,95.50
2018-06-24T21:00:08.154Z,95.43
2018-06-24T21:02:37.352Z,95.21
2018-06-24T21:05:06.655Z,94.77
2018-06-24T21:07:35.786Z,95.01
2018-06-24T21:10:04.920Z,95.00
2018-06-24T21:12:34.120Z,94.74
2018-06-24T21:15:04.278Z,94.98
2018-06-24T21:17:33.509Z,95.14
2018-06-24T21:20:02.660Z,95.58
2018-06-24T21:22:31.802Z,95.37
2018-06-24T21:25:01.018Z,95.12
2018-06-24T21:27:30.162Z,95.32
2018-06-24T21:29:59.384Z,95.31
2018-06-24T21:32:28.552Z,95.41
2018-06-24T21:34:57.706Z,95.78
2018-06-24T21:37:26.850Z,95.68
2018-06-24T21:39:56.462Z,95.93
2018-06-24T21:42:25.703Z,95.20
2018-06-24T21:44:54.951Z,95.22
2018-06-24T21:47:24.092Z,95.93
2018-06-24T21:49:53.358Z,95.64
2018-06-24T21:52:22.469Z,96.15
2018-06-24T21:54:51.901Z,95.89
2018-06-24T21:57:21.033Z,96.24
2018-06-24T21:59:50.141Z,96.35
2018-06-24T22:02:19.257Z,95.91
2018-06-24T22:04:48.514Z,96.18
2018-06-24T22:07:17.645Z,96.32
2018-06-24T22:09:46.776Z,95.76
2018-06-24T22:12:15.909Z,96.56
2018-06-24T22:14:45.018Z,96.52
2018-06-24T22:17:14.177Z,96.44
2018-06-24T22:19:43.358Z,96.10
2018-06-24T22:22:12.477Z,96.44
2018-06-24T22:24:41.645Z,95.89
2018-06-24T22:27:10.806Z,96.39
2018-06-24T22:29:39.956Z,96.41
2018-06-24T22:32:09.135Z,96.44
2018-06-24T22:34:38.398Z,95.72
2018-06-24T22:37:07.558Z,95.74
2018-06-24T22:39:36.696Z,96.08
2018-06-24T22:42:05.801Z,95.93
2018-06-24T22:44:34.982Z,96.16
2018-06-24T22:47:04.110Z,96.53
2018-06-24T22:49:33.197Z,97.08
2018-06-24T22:52:02.318Z,97.02
2018-06-24T22:54:31.727Z,97.24
2018-06-24T22:57:00.941Z,97.23
2018-06-24T22:59:47.433Z,97.98
2018-06-24T23:02:16.750Z,98.29
2018-06-24T23:04:45.986Z,98.05
2018-06-24T23:07:15.099Z,98.25
2018-06-24T23:09:44.229Z,98.15
2018-06-24T23:12:13.353Z,98.39
2018-06-24T23:14:42.490Z,98.36
2018-06-24T23:17:11.614Z,98.24
2018-06-24T23:19:40.769Z,98.11
2018-06-24T23:22:09.984Z,97.80
2018-06-24T23:24:39.144Z,98.22
2018-06-24T23:27:08.351Z,97.77
2018-06-24T23:29:37.507Z,98.04
2018-06-24T23:32:06.679Z,98.45
2018-06-24T23:34:35.886Z,97.77
2018-06-24T23:37:05.058Z,98.25
2018-06-24T23:39:34.353Z,98.48
2018-06-24T23:42:03.545Z,98.42
2018-06-24T23:44:32.679Z,98.08
2018-06-24T23:47:01.841Z,98.04
2018-06-24T23:49:31.424Z,97.45
2018-06-24T23:52:00.776Z,97.97
2018-06-24T23:54:30.344Z,97.42
2018-06-24T23:56:59.625Z,98.16
2018-06-24T23:59:28.952Z,97.54
